createdAt,value
2019-03-15T00:01:46.951Z,32.60
2019-03-15T00:04:21.844Z,32.60
2019-03-15T00:06:56.572Z,32.60
2019-03-15T00:09:31.427Z,32.60
2019-03-15T00:12:06.535Z,32.60
2019-03-15T00:14:41.353Z,32.60
2019-03-15T00:17:16.703Z,32.60
2019-03-15T00:19:51.593Z,32.60
2019-03-15T00:22:26.895Z,32.60
2019-03-15T00:25:01.725Z,32.70
2019-03-15T00:27:36.284Z,32.70
2019-03-15T00:30:12.861Z,32.70
2019-03-15T00:32:47.291Z,32.70
2019-03-15T00:35:22.129Z,32.70
2019-03-15T00:37:57.359Z,32.80
2019-03-15T00:40:32.047Z,32.80
2019-03-15T00:43:06.818Z,32.80
2019-03-15T00:45:42.037Z,32.80
2019-03-15T00:48:16.780Z,32.80
2019-03-15T00:50:51.560Z,32.80
2019-03-15T00:53:26.706Z,32.80
2019-03-15T00:56:02.141Z,32.90
2019-03-15T00:58:37.041Z,32.90
2019-03-15T01:01:12.040Z,32.90
2019-03-15T01:03:47.316Z,32.90
2019-03-15T01:06:22.029Z,32.90
2019-03-15T01:08:57.060Z,33.00
2019-03-15T01:11:31.466Z,33.00
2019-03-15T01:14:06.164Z,33.00
2019-03-15T01:16:41.021Z,33.00
2019-03-15T01:19:15.945Z,33.00
2019-03-15T01:21:51.541Z,33.00
2019-03-15T01:24:26.354Z,33.00
2019-03-15T01:27:01.097Z,33.00
2019-03-15T01:29:35.913Z,33.00
2019-03-15T01:32:10.661Z,33.10
2019-03-15T01:34:49.682Z,33.10
2019-03-15T01:37:24.403Z,33.10
2019-03-15T01:39:59.376Z,33.10
2019-03-15T01:42:34.320Z,33.10
2019-03-15T01:45:09.078Z,33.10
2019-03-15T01:47:43.482Z,33.10
2019-03-15T01:50:18.336Z,33.10
2019-03-15T01:52:53.137Z,33.10
2019-03-15T01:55:28.180Z,33.20
2019-03-15T01:58:03.102Z,33.10
2019-03-15T02:00:38.805Z,33.20
2019-03-15T02:03:13.888Z,33.20
2019-03-15T02:05:49.122Z,33.20
2019-03-15T02:08:23.887Z,33.20
2019-03-15T02:10:59.098Z,33.20
2019-03-15T02:13:33.673Z,33.20
2019-03-15T02:16:08.943Z,33.20
2019-03-15T02:18:44.340Z,33.20
2019-03-15T02:21:19.376Z,33.20
2019-03-15T02:23:53.890Z,33.30
2019-03-15T02:26:28.519Z,33.20
2019-03-15T02:29:03.588Z,33.30
2019-03-15T02:31:38.596Z,33.30
2019-03-15T02:34:13.407Z,33.30
2019-03-15T02:36:48.387Z,33.30
2019-03-15T02:39:23.499Z,33.40
2019-03-15T02:41:59.055Z,33.40
2019-03-15T02:44:34.332Z,33.40
2019-03-15T02:47:09.053Z,33.40
2019-03-15T02:49:44.140Z,33.40
2019-03-15T02:52:18.818Z,33.40
2019-03-15T02:54:54.541Z,33.50
2019-03-15T02:57:30.425Z,33.50
2019-03-15T03:00:05.201Z,33.50
2019-03-15T03:02:40.117Z,33.50
2019-03-15T03:05:15.371Z,33.50
2019-03-15T03:07:49.266Z,33.50
2019-03-15T03:10:24.207Z,33.60
2019-03-15T03:12:59.113Z,33.60
2019-03-15T03:15:33.660Z,33.60
2019-03-15T03:18:08.467Z,33.60
2019-03-15T03:20:43.001Z,33.50
2019-03-15T03:23:17.886Z,33.40
2019-03-15T03:25:53.127Z,33.40
2019-03-15T03:28:28.081Z,33.20
2019-03-15T03:31:02.867Z,33.20
2019-03-15T03:33:37.400Z,33.10
2019-03-15T03:36:12.574Z,33.00
2019-03-15T03:38:47.242Z,32.90
2019-03-15T03:41:23.155Z,32.90
2019-03-15T03:43:58.070Z,32.80
2019-03-15T03:46:33.172Z,32.70
2019-03-15T03:49:07.856Z,32.70
2019-03-15T03:51:42.217Z,32.60
2019-03-15T03:54:16.576Z,32.60
2019-03-15T03:56:51.420Z,32.60
2019-03-15T03:59:25.841Z,32.60
2019-03-15T04:02:00.453Z,32.60
2019-03-15T04:04:35.317Z,32.60
2019-03-15T04:07:10.252Z,32.60
2019-03-15T04:09:45.078Z,32.50
2019-03-15T04:12:19.986Z,32.50
2019-03-15T04:14:54.473Z,32.50
2019-03-15T04:17:29.420Z,32.50
2019-03-15T04:20:04.206Z,32.50
2019-03-15T04:22:39.012Z,32.40
2019-03-15T04:25:13.785Z,32.40
2019-03-15T04:27:49.425Z,32.40
2019-03-15T04:30:24.904Z,32.40
2019-03-15T04:32:59.792Z,32.40
2019-03-15T04:35:34.785Z,32.40
2019-03-15T04:38:09.920Z,32.40
2019-03-15T04:40:44.436Z,32.40
2019-03-15T04:43:18.829Z,32.40
2019-03-15T04:45:53.698Z,32.40
2019-03-15T04:48:28.285Z,32.50
2019-03-15T04:51:03.318Z,32.50
2019-03-15T04:53:37.888Z,32.50
2019-03-15T04:56:12.755Z,32.50
2019-03-15T04:58:47.375Z,32.50
2019-03-15T05:01:21.975Z,32.50
2019-03-15T05:03:56.964Z,32.50
2019-03-15T05:06:31.610Z,32.50
2019-03-15T05:09:06.706Z,32.60
2019-03-15T05:11:41.921Z,32.60
2019-03-15T05:14:16.634Z,32.60
2019-03-15T05:16:51.339Z,32.60
2019-03-15T05:19:25.744Z,32.60
2019-03-15T05:22:00.499Z,32.60
2019-03-15T05:24:34.834Z,32.60
2019-03-15T05:27:09.720Z,32.60
2019-03-15T05:29:44.494Z,32.60
2019-03-15T05:32:19.519Z,32.60
2019-03-15T05:34:53.842Z,32.70
2019-03-15T05:37:29.009Z,32.60
2019-03-15T05:40:03.822Z,32.70
2019-03-15T05:42:38.889Z,32.70
2019-03-15T05:45:14.182Z,32.80
2019-03-15T05:47:49.613Z,32.80
2019-03-15T05:50:24.367Z,32.80
2019-03-15T05:52:59.129Z,32.80
2019-03-15T05:55:33.590Z,32.90
2019-03-15T05:58:08.216Z,32.90
2019-03-15T06:00:43.135Z,32.80
2019-03-15T06:03:18.002Z,32.90
2019-03-15T06:05:52.374Z,32.90
2019-03-15T06:08:27.675Z,32.90
2019-03-15T06:11:02.589Z,32.90
2019-03-15T06:13:37.380Z,32.80
2019-03-15T06:16:12.289Z,32.90
2019-03-15T06:18:47.067Z,32.90
2019-03-15T06:21:22.250Z,32.90
2019-03-15T06:23:56.933Z,32.90
2019-03-15T06:26:32.104Z,32.90
2019-03-15T06:29:08.631Z,32.90
2019-03-15T06:31:44.167Z,32.80
2019-03-15T06:34:18.708Z,32.90
2019-03-15T06:36:53.824Z,32.90
2019-03-15T06:39:28.255Z,32.80
2019-03-15T06:42:02.843Z,32.80
2019-03-15T06:44:37.875Z,32.80
2019-03-15T06:47:12.738Z,32.80
2019-03-15T06:49:47.541Z,32.80
2019-03-15T06:52:21.554Z,32.80
2019-03-15T06:54:56.772Z,32.80
2019-03-15T06:57:32.249Z,32.80
2019-03-15T07:00:07.165Z,32.80
2019-03-15T07:02:41.712Z,32.80
2019-03-15T07:05:35.887Z,32.80
2019-03-15T07:08:10.665Z,32.80
2019-03-15T07:10:45.763Z,32.80
2019-03-15T07:13:20.477Z,32.80
2019-03-15T07:15:54.786Z,32.70
2019-03-15T07:18:29.994Z,32.80
2019-03-15T07:21:04.642Z,32.70
2019-03-15T07:23:39.792Z,32.80
2019-03-15T07:26:14.605Z,32.80
2019-03-15T07:28:50.156Z,32.80
2019-03-15T07:31:24.879Z,32.80
2019-03-15T07:33:59.586Z,32.80
2019-03-15T07:36:37.412Z,32.80
2019-03-15T07:39:12.977Z,32.80
2019-03-15T07:41:48.073Z,32.90
2019-03-15T07:44:26.300Z,32.90
2019-03-15T07:47:00.783Z,32.80
2019-03-15T07:49:35.393Z,32.90
2019-03-15T07:52:10.392Z,32.90
2019-03-15T07:54:45.096Z,32.90
2019-03-15T07:57:20.108Z,32.90
2019-03-15T07:59:54.655Z,32.90
2019-03-15T08:02:29.520Z,32.90
2019-03-15T08:05:03.952Z,32.90
2019-03-15T08:07:44.762Z,32.90
2019-03-15T08:10:14.394Z,32.90
2019-03-15T08:12:49.846Z,32.90
2019-03-15T08:15:24.921Z,32.90
2019-03-15T08:18:00.593Z,32.90
2019-03-15T08:20:35.624Z,33.00
2019-03-15T08:23:10.261Z,33.00
2019-03-15T08:25:46.415Z,33.00
2019-03-15T08:28:21.043Z,33.00
2019-03-15T08:30:56.030Z,33.00
2019-03-15T08:33:30.659Z,33.00
2019-03-15T08:36:05.510Z,33.10
2019-03-15T08:38:47.405Z,33.10
2019-03-15T08:41:16.456Z,33.10
2019-03-15T08:43:51.260Z,33.10
2019-03-15T08:46:25.964Z,33.10
2019-03-15T08:49:00.881Z,33.10
2019-03-15T08:51:38.706Z,33.20
2019-03-15T08:54:13.472Z,33.20
2019-03-15T08:56:48.247Z,33.20
2019-03-15T08:59:23.239Z,33.20
2019-03-15T09:01:57.607Z,33.20
2019-03-15T09:04:32.722Z,33.20
2019-03-15T09:07:07.465Z,33.30
2019-03-15T09:09:42.494Z,33.30
2019-03-15T09:12:17.395Z,33.30
2019-03-15T09:14:52.002Z,33.30
2019-03-15T09:17:26.379Z,33.30
2019-03-15T09:20:01.066Z,33.30
2019-03-15T09:22:37.931Z,33.30
2019-03-15T09:25:19.183Z,33.30
2019-03-15T09:27:48.163Z,33.30
2019-03-15T09:30:24.216Z,33.30
2019-03-15T09:32:59.080Z,33.30
2019-03-15T09:35:34.372Z,33.30
2019-03-15T09:38:10.815Z,33.30
2019-03-15T09:40:46.565Z,33.30
2019-03-15T09:43:21.463Z,33.30
2019-03-15T09:45:56.597Z,33.30
2019-03-15T09:48:31.613Z,33.30
2019-03-15T09:51:06.550Z,33.30
2019-03-15T09:53:41.770Z,33.30
2019-03-15T09:56:16.601Z,33.30
2019-03-15T09:58:51.120Z,33.30
2019-03-15T10:01:34.909Z,33.40
2019-03-15T10:04:02.276Z,33.40
2019-03-15T10:06:37.256Z,33.40
2019-03-15T10:09:12.816Z,33.50
2019-03-15T10:11:47.517Z,33.50
2019-03-15T10:14:21.999Z,33.60
2019-03-15T10:16:58.995Z,33.60
2019-03-15T10:19:34.024Z,33.80
2019-03-15T10:22:08.891Z,33.80
2019-03-15T10:24:43.961Z,33.90
2019-03-15T10:27:18.809Z,33.90
2019-03-15T10:29:53.707Z,34.00
2019-03-15T10:32:28.538Z,34.10
2019-03-15T10:35:03.420Z,34.10
2019-03-15T10:37:38.465Z,34.20
2019-03-15T10:40:15.923Z,34.20
2019-03-15T10:42:50.794Z,34.30
2019-03-15T10:45:25.473Z,34.30
2019-03-15T10:47:59.973Z,34.40
2019-03-15T10:50:34.981Z,34.40
2019-03-15T10:53:09.828Z,34.40
2019-03-15T10:55:44.593Z,34.40
2019-03-15T10:58:18.995Z,34.50
2019-03-15T11:00:53.966Z,34.60
2019-03-15T11:03:29.018Z,34.60
2019-03-15T11:06:03.588Z,34.60
2019-03-15T11:08:37.922Z,34.60
2019-03-15T11:11:14.971Z,34.60
2019-03-15T11:13:48.809Z,34.70
2019-03-15T11:16:23.459Z,34.60
2019-03-15T11:18:58.520Z,34.70
2019-03-15T11:21:33.194Z,34.70
2019-03-15T11:24:07.641Z,34.60
2019-03-15T11:26:42.394Z,34.60
2019-03-15T11:29:18.137Z,34.50
2019-03-15T11:31:52.553Z,34.30
2019-03-15T11:34:27.670Z,34.30
2019-03-15T11:37:03.585Z,34.20
2019-03-15T11:39:38.259Z,34.10
2019-03-15T11:42:14.985Z,34.00
2019-03-15T11:44:50.104Z,33.90
2019-03-15T11:47:24.645Z,33.80
2019-03-15T11:49:59.571Z,33.70
2019-03-15T11:52:34.315Z,33.60
2019-03-15T11:55:11.135Z,33.50
2019-03-15T11:57:45.847Z,33.40
2019-03-15T12:00:20.552Z,33.40
2019-03-15T12:02:56.042Z,33.30
2019-03-15T12:05:30.632Z,33.20
2019-03-15T12:08:05.734Z,33.20
2019-03-15T12:10:40.885Z,33.10
2019-03-15T12:13:18.118Z,33.00
2019-03-15T12:15:53.162Z,33.00
2019-03-15T12:18:27.810Z,32.90
2019-03-15T12:21:02.022Z,32.90
2019-03-15T12:23:36.481Z,32.80
2019-03-15T12:26:11.347Z,32.80
2019-03-15T12:28:46.566Z,32.70
2019-03-15T12:31:21.515Z,32.70
2019-03-15T12:33:56.208Z,32.60
2019-03-15T12:36:30.915Z,32.60
2019-03-15T12:39:05.630Z,32.60
2019-03-15T12:41:40.589Z,32.60
2019-03-15T12:44:15.934Z,32.60
2019-03-15T12:46:50.324Z,32.70
2019-03-15T12:49:25.826Z,32.70
2019-03-15T12:52:00.492Z,32.80
2019-03-15T12:54:35.826Z,32.80
2019-03-15T12:57:10.429Z,32.80
2019-03-15T12:59:45.354Z,32.80
2019-03-15T13:02:20.456Z,32.70
2019-03-15T13:04:55.155Z,32.70
2019-03-15T13:07:30.109Z,32.70
2019-03-15T13:10:05.460Z,32.70
2019-03-15T13:12:40.298Z,32.70
2019-03-15T13:15:16.008Z,32.60
2019-03-15T13:17:50.629Z,32.60
2019-03-15T13:20:25.256Z,32.60
2019-03-15T13:23:00.344Z,32.60
2019-03-15T13:25:36.046Z,32.60
2019-03-15T13:28:10.527Z,32.60
2019-03-15T13:30:45.533Z,32.60
2019-03-15T13:33:21.089Z,32.60
2019-03-15T13:35:55.855Z,32.60
2019-03-15T13:38:30.453Z,32.50
2019-03-15T13:41:05.426Z,32.50
2019-03-15T13:43:40.341Z,32.50
2019-03-15T13:46:15.403Z,32.40
2019-03-15T13:48:51.351Z,32.50
2019-03-15T13:51:26.194Z,32.50
2019-03-15T13:54:01.031Z,32.50
2019-03-15T13:56:35.742Z,32.50
2019-03-15T13:59:10.692Z,32.60
2019-03-15T14:01:45.589Z,32.50
2019-03-15T14:04:20.524Z,32.50
2019-03-15T14:06:55.988Z,32.50
2019-03-15T14:09:30.766Z,32.50
2019-03-15T14:12:05.516Z,32.50
2019-03-15T14:17:20.665Z,32.50
2019-03-15T14:19:55.380Z,32.40
2019-03-15T14:22:30.225Z,32.40
2019-03-15T14:25:05.200Z,32.40
2019-03-15T14:27:39.267Z,32.40
2019-03-15T14:30:14.734Z,32.40
2019-03-15T14:32:49.628Z,32.40
2019-03-15T14:35:25.208Z,32.40
2019-03-15T14:38:00.156Z,32.40
2019-03-15T14:40:35.209Z,32.40
2019-03-15T14:43:10.114Z,32.40
2019-03-15T14:45:45.098Z,32.30
2019-03-15T14:48:20.647Z,32.40
2019-03-15T14:50:55.470Z,32.30
2019-03-15T14:53:30.342Z,32.30
2019-03-15T14:56:05.123Z,32.30
2019-03-15T14:58:39.882Z,32.30
2019-03-15T15:01:14.544Z,32.30
2019-03-15T15:03:49.254Z,32.30
2019-03-15T15:06:23.328Z,32.30
2019-03-15T15:08:58.204Z,32.30
2019-03-15T15:11:33.070Z,32.30
2019-03-15T15:14:10.603Z,32.30
2019-03-15T15:16:45.179Z,32.30
2019-03-15T15:19:20.104Z,32.30
2019-03-15T15:21:54.951Z,32.30
2019-03-15T15:24:29.504Z,32.30
2019-03-15T15:27:04.532Z,32.30
2019-03-15T15:29:39.435Z,32.40
2019-03-15T15:32:14.149Z,32.40
2019-03-15T15:34:48.798Z,32.50
2019-03-15T15:37:25.395Z,32.60
2019-03-15T15:40:00.441Z,32.60
2019-03-15T15:42:35.266Z,32.70
2019-03-15T15:45:10.195Z,32.70
2019-03-15T15:47:46.715Z,32.80
2019-03-15T15:50:21.245Z,32.80
2019-03-15T15:52:56.024Z,32.90
2019-03-15T15:55:31.061Z,32.90
2019-03-15T15:58:17.234Z,32.90
2019-03-15T16:00:41.923Z,33.00
2019-03-15T16:03:17.131Z,33.00
2019-03-15T16:05:51.588Z,33.00
2019-03-15T16:08:26.659Z,33.00
2019-03-15T16:11:01.402Z,33.10
2019-03-15T16:13:35.833Z,33.20
2019-03-15T16:16:10.515Z,33.10
2019-03-15T16:18:45.296Z,33.10
2019-03-15T16:21:20.248Z,33.20
2019-03-15T16:23:55.080Z,33.20
2019-03-15T16:26:29.914Z,33.20
2019-03-15T16:29:04.503Z,33.20
2019-03-15T16:31:39.085Z,33.20
2019-03-15T16:34:13.807Z,33.20
2019-03-15T16:36:48.828Z,33.20
2019-03-15T16:39:24.373Z,33.20
2019-03-15T16:41:59.589Z,33.20
2019-03-15T16:44:33.978Z,33.30
2019-03-15T16:47:09.067Z,33.30
2019-03-15T16:49:46.275Z,33.20
2019-03-15T16:52:22.076Z,33.30
2019-03-15T16:54:56.873Z,33.30
2019-03-15T16:57:31.514Z,33.30
2019-03-15T17:00:06.103Z,33.30
2019-03-15T17:02:40.953Z,33.30
2019-03-15T17:05:16.003Z,33.30
2019-03-15T17:07:50.753Z,33.30
2019-03-15T17:10:25.655Z,33.30
2019-03-15T17:13:00.602Z,33.30
2019-03-15T17:15:35.421Z,33.30
2019-03-15T17:18:09.416Z,33.30
2019-03-15T17:20:44.416Z,33.30
2019-03-15T17:23:18.949Z,33.30
2019-03-15T17:25:54.058Z,33.30
2019-03-15T17:28:28.944Z,33.30
2019-03-15T17:31:09.618Z,33.30
2019-03-15T17:33:40.194Z,33.30
2019-03-15T17:36:14.866Z,33.30
2019-03-15T17:38:49.964Z,33.30
2019-03-15T17:41:24.506Z,33.30
2019-03-15T17:44:00.256Z,33.30
2019-03-15T17:46:34.406Z,33.30
2019-03-15T17:49:09.340Z,33.30
2019-03-15T17:51:45.367Z,33.30
2019-03-15T17:54:20.921Z,33.30
2019-03-15T17:56:55.989Z,33.20
2019-03-15T17:59:30.595Z,33.20
2019-03-15T18:02:08.148Z,33.20
2019-03-15T18:04:42.896Z,33.30
2019-03-15T18:07:17.568Z,33.20
2019-03-15T18:09:52.906Z,33.20
2019-03-15T18:12:27.491Z,33.20
2019-03-15T18:15:02.251Z,33.20
2019-03-15T18:17:37.073Z,33.20
2019-03-15T18:20:12.066Z,33.30
2019-03-15T18:22:46.743Z,33.20
2019-03-15T18:25:21.686Z,33.20
2019-03-15T18:27:56.552Z,33.20
2019-03-15T18:30:30.688Z,33.20
2019-03-15T18:33:05.540Z,33.20
2019-03-15T18:35:40.467Z,33.20
2019-03-15T18:38:15.111Z,33.20
2019-03-15T18:40:57.262Z,33.20
2019-03-15T18:43:32.019Z,33.20
2019-03-15T18:46:07.062Z,33.20
2019-03-15T18:48:41.603Z,33.20
2019-03-15T18:51:16.518Z,33.20
2019-03-15T18:53:50.928Z,33.20
2019-03-15T18:56:26.748Z,33.20
2019-03-15T18:59:01.463Z,33.20
2019-03-15T19:01:36.558Z,33.20
2019-03-15T19:04:11.371Z,33.20
2019-03-15T19:06:46.113Z,33.20
2019-03-15T19:09:20.485Z,33.20
2019-03-15T19:11:55.392Z,33.20
2019-03-15T19:14:30.193Z,33.20
2019-03-15T19:17:05.524Z,33.10
2019-03-15T19:19:40.099Z,33.10
2019-03-15T19:22:14.895Z,33.10
2019-03-15T19:24:49.843Z,33.10
2019-03-15T19:27:24.526Z,33.10
2019-03-15T19:29:58.941Z,33.10
2019-03-15T19:32:34.206Z,33.10
2019-03-15T19:35:09.885Z,33.10
2019-03-15T19:37:45.025Z,33.10
2019-03-15T19:40:19.692Z,33.20
2019-03-15T19:42:54.599Z,33.20
2019-03-15T19:45:29.471Z,33.10
2019-03-15T19:48:04.565Z,33.10
2019-03-15T19:50:39.103Z,33.10
2019-03-15T19:53:14.068Z,33.10
2019-03-15T19:55:48.836Z,33.10
2019-03-15T19:58:23.749Z,33.10
2019-03-15T20:00:58.550Z,33.10
2019-03-15T20:03:43.561Z,33.10
2019-03-15T20:06:09.442Z,33.10
2019-03-15T20:08:44.054Z,33.10
2019-03-15T20:11:18.920Z,33.10
2019-03-15T20:13:53.466Z,33.10
2019-03-15T20:16:28.758Z,33.00
2019-03-15T20:19:03.600Z,33.10
2019-03-15T20:21:39.054Z,33.10
2019-03-15T20:24:13.942Z,33.00
2019-03-15T20:26:48.461Z,33.00
2019-03-15T20:29:23.686Z,33.10
2019-03-15T20:31:58.362Z,33.10
2019-03-15T20:34:33.151Z,33.00
2019-03-15T20:37:07.822Z,33.00
2019-03-15T20:39:42.242Z,33.00
2019-03-15T20:42:17.304Z,33.10
2019-03-15T20:44:52.165Z,33.00
2019-03-15T20:47:26.342Z,33.00
2019-03-15T20:50:01.602Z,33.00
2019-03-15T20:52:36.343Z,33.00
2019-03-15T20:55:11.109Z,33.10
2019-03-15T20:57:45.767Z,33.00
2019-03-15T21:00:34.300Z,33.00
2019-03-15T21:02:57.960Z,33.00
2019-03-15T21:05:32.332Z,33.10
2019-03-15T21:08:07.277Z,33.00
2019-03-15T21:10:42.751Z,33.00
2019-03-15T21:13:17.700Z,33.00
2019-03-15T21:15:52.360Z,33.00
2019-03-15T21:18:27.288Z,33.10
2019-03-15T21:21:01.912Z,33.00
2019-03-15T21:23:36.997Z,33.10
2019-03-15T21:26:11.715Z,33.00
2019-03-15T21:28:46.519Z,33.10
2019-03-15T21:31:21.320Z,33.00
2019-03-15T21:33:55.931Z,33.00
2019-03-15T21:36:30.292Z,33.10
2019-03-15T21:39:05.485Z,33.00
2019-03-15T21:41:40.573Z,33.10
2019-03-15T21:44:17.329Z,33.00
2019-03-15T21:46:51.191Z,33.00
2019-03-15T21:49:26.081Z,33.00
2019-03-15T21:52:01.099Z,33.00
2019-03-15T21:54:35.476Z,33.00
2019-03-15T21:57:10.428Z,33.00
2019-03-15T21:59:45.534Z,33.00
2019-03-15T22:02:20.041Z,33.00
2019-03-15T22:04:54.551Z,33.00
2019-03-15T22:07:29.830Z,33.00
2019-03-15T22:10:04.861Z,33.00
2019-03-15T22:12:39.478Z,33.00
2019-03-15T22:15:14.616Z,33.00
2019-03-15T22:17:51.445Z,33.00
2019-03-15T22:20:26.437Z,33.00
2019-03-15T22:23:01.167Z,33.00
2019-03-15T22:25:36.542Z,33.00
2019-03-15T22:28:11.370Z,33.00
2019-03-15T22:30:46.316Z,33.00
2019-03-15T22:33:21.153Z,33.00
2019-03-15T22:35:55.451Z,33.00
2019-03-15T22:38:30.623Z,33.00
2019-03-15T22:41:05.417Z,33.00
2019-03-15T22:43:40.415Z,33.00
2019-03-15T22:46:16.836Z,33.00
2019-03-15T22:48:52.532Z,32.90
2019-03-15T22:51:27.221Z,33.00
2019-03-15T22:54:02.621Z,33.00
2019-03-15T22:56:37.371Z,33.00
2019-03-15T22:59:12.679Z,32.90
2019-03-15T23:01:47.457Z,33.00
2019-03-15T23:04:22.200Z,33.00
2019-03-15T23:06:57.155Z,32.90
2019-03-15T23:09:32.575Z,32.90
2019-03-15T23:12:06.757Z,32.90
2019-03-15T23:14:41.554Z,32.90
2019-03-15T23:17:16.284Z,33.00
2019-03-15T23:19:51.247Z,32.90
2019-03-15T23:22:26.029Z,32.90
2019-03-15T23:25:00.821Z,32.90
2019-03-15T23:27:35.018Z,32.90
2019-03-15T23:30:10.210Z,32.90
2019-03-15T23:32:44.847Z,32.90
2019-03-15T23:35:19.450Z,32.90
2019-03-15T23:37:54.447Z,32.90
2019-03-15T23:40:29.230Z,33.00
2019-03-15T23:43:04.048Z,32.90
2019-03-15T23:45:38.579Z,32.90
2019-03-15T23:48:13.261Z,32.90
2019-03-15T23:50:48.157Z,33.00
2019-03-15T23:53:23.189Z,32.90
2019-03-15T23:55:58.147Z,32.90
2019-03-15T23:58:32.885Z,32.90
